Brisben, New York
Current Conditions -  °F | °C
As of 2:53 PM on Tuesday 25 Nov 2014 (Local Time) from KBGM Reporting Station
Clear Clear  
Wind Chill:   Ceiling: Unl
Heat Index:   Visibility: 10mi
Dew Point: -4°   Wind: 17mph
Humidity: 42%   Direction: 230°SW
Pressure: 29.93"   Gusts: 26mph
Location:  42.4446°N, 75.6311°W
Report Text: KBGM 251953Z 23015G23KT 10SM CLR 08/M04 A2993 RMK AO2 SLP139 T00781044
Loading
Personal Weather Stations






























Interactive Weather Map New forecast layout! Learn more

10-Day Weather Forecast

Advertisements
Track Severe Weather on mobile